sensor_id;sensor_type;location;lat;lon;timestamp;pressure;altitude;pressure_sealevel;temperature;humidity
73628;BME280;61923;51.846;5.856;2023-02-13T00:00:32;103675.50;;;14.68;68.72
73628;BME280;61923;51.846;5.856;2023-02-13T00:02:57;103665.81;;;14.70;68.46
73628;BME280;61923;51.846;5.856;2023-02-13T00:05:23;103664.88;;;14.71;68.25
73628;BME280;61923;51.846;5.856;2023-02-13T00:07:48;103652.13;;;14.65;68.30
73628;BME280;61923;51.846;5.856;2023-02-13T00:10:14;103660.56;;;14.70;68.29
73628;BME280;61923;51.846;5.856;2023-02-13T00:12:39;103659.72;;;14.69;68.51
73628;BME280;61923;51.846;5.856;2023-02-13T00:15:06;103656.25;;;14.69;68.51
73628;BME280;61923;51.846;5.856;2023-02-13T00:17:31;103653.66;;;14.69;68.44
73628;BME280;61923;51.846;5.856;2023-02-13T00:19:57;103658.72;;;14.72;68.35
73628;BME280;61923;51.846;5.856;2023-02-13T00:22:22;103658.78;;;14.70;68.60
73628;BME280;61923;51.846;5.856;2023-02-13T00:24:49;103652.53;;;14.73;68.79
73628;BME280;61923;51.846;5.856;2023-02-13T00:27:15;103656.75;;;14.76;68.77
73628;BME280;61923;51.846;5.856;2023-02-13T00:29:40;103660.25;;;14.76;68.73
73628;BME280;61923;51.846;5.856;2023-02-13T00:32:06;103652.38;;;14.76;68.56
73628;BME280;61923;51.846;5.856;2023-02-13T00:34:31;103643.59;;;14.77;68.74
73628;BME280;61923;51.846;5.856;2023-02-13T00:36:57;103633.22;;;14.76;68.60
73628;BME280;61923;51.846;5.856;2023-02-13T00:39:25;103638.56;;;14.74;68.76
73628;BME280;61923;51.846;5.856;2023-02-13T00:41:51;103645.63;;;14.72;69.09
73628;BME280;61923;51.846;5.856;2023-02-13T00:44:16;103649.94;;;14.73;68.93
73628;BME280;61923;51.846;5.856;2023-02-13T00:46:41;103642.28;;;14.70;68.88
73628;BME280;61923;51.846;5.856;2023-02-13T00:49:07;103652.53;;;14.73;69.03
73628;BME280;61923;51.846;5.856;2023-02-13T00:51:33;103649.00;;;14.74;68.97
73628;BME280;61923;51.846;5.856;2023-02-13T00:53:59;103646.28;;;14.76;69.10
73628;BME280;61923;51.846;5.856;2023-02-13T00:56:25;103646.41;;;14.74;69.01
73628;BME280;61923;51.846;5.856;2023-02-13T00:58:50;103649.00;;;14.74;68.93
73628;BME280;61923;51.846;5.856;2023-02-13T01:01:16;103642.84;;;14.75;68.98
73628;BME280;61923;51.846;5.856;2023-02-13T01:03:41;103624.38;;;14.62;69.11
73628;BME280;61923;51.846;5.856;2023-02-13T01:06:07;103644.44;;;14.78;69.07
73628;BME280;61923;51.846;5.856;2023-02-13T01:08:32;103642.00;;;14.74;69.15
73628;BME280;61923;51.846;5.856;2023-02-13T01:10:58;103651.53;;;14.76;69.10
73628;BME280;61923;51.846;5.856;2023-02-13T01:13:24;103643.09;;;14.70;69.03
73628;BME280;61923;51.846;5.856;2023-02-13T01:15:50;103642.16;;;14.71;69.19
73628;BME280;61923;51.846;5.856;2023-02-13T01:18:17;103645.53;;;14.73;69.08
73628;BME280;61923;51.846;5.856;2023-02-13T01:20:43;103644.63;;;14.74;68.99
73628;BME280;61923;51.846;5.856;2023-02-13T01:23:10;103647.31;;;14.73;69.23
73628;BME280;61923;51.846;5.856;2023-02-13T01:25:40;103646.47;;;14.72;69.12
73628;BME280;61923;51.846;5.856;2023-02-13T01:28:06;103648.16;;;14.73;69.13
73628;BME280;61923;51.846;5.856;2023-02-13T01:30:31;103637.19;;;14.67;69.15
73628;BME280;61923;51.846;5.856;2023-02-13T01:32:57;103645.53;;;14.73;69.23
73628;BME280;61923;51.846;5.856;2023-02-13T01:35:22;103643.19;;;14.69;69.28
73628;BME280;61923;51.846;5.856;2023-02-13T01:37:47;103637.88;;;14.70;69.44
73628;BME280;61923;51.846;5.856;2023-02-13T01:40:13;103636.16;;;14.69;69.37
73628;BME280;61923;51.846;5.856;2023-02-13T01:42:38;103639.47;;;14.73;69.33
73628;BME280;61923;51.846;5.856;2023-02-13T01:45:36;103641.91;;;14.76;69.14
73628;BME280;61923;51.846;5.856;2023-02-13T01:48:05;103640.97;;;14.77;69.04
73628;BME280;61923;51.846;5.856;2023-02-13T01:50:37;103636.69;;;14.76;69.06
73628;BME280;61923;51.846;5.856;2023-02-13T01:53:07;103624.53;;;14.75;69.20
73628;BME280;61923;51.846;5.856;2023-02-13T01:55:41;103630.69;;;14.74;68.97
73628;BME280;61923;51.846;5.856;2023-02-13T01:58:11;103605.81;;;14.67;69.27
73628;BME280;61923;51.846;5.856;2023-02-13T02:00:38;103616.19;;;14.68;69.41
73628;BME280;61923;51.846;5.856;2023-02-13T02:03:10;103613.56;;;14.68;69.55
73628;BME280;61923;51.846;5.856;2023-02-13T02:05:37;103621.34;;;14.70;69.21
73628;BME280;61923;51.846;5.856;2023-02-13T02:08:03;103622.66;;;14.77;69.57
73628;BME280;61923;51.846;5.856;2023-02-13T02:10:30;103619.78;;;14.82;69.50
73628;BME280;61923;51.846;5.856;2023-02-13T02:13:20;103619.13;;;14.78;69.53
73628;BME280;61923;51.846;5.856;2023-02-13T02:15:47;103615.56;;;14.79;69.58
73628;BME280;61923;51.846;5.856;2023-02-13T02:18:21;103620.72;;;14.81;69.53
73628;BME280;61923;51.846;5.856;2023-02-13T02:27:03;103616.41;;;14.80;69.82
73628;BME280;61923;51.846;5.856;2023-02-13T02:35:40;103623.34;;;14.81;69.72
73628;BME280;61923;51.846;5.856;2023-02-13T02:38:27;103630.34;;;14.80;69.93
73628;BME280;61923;51.846;5.856;2023-02-13T02:49:39;103610.59;;;14.74;69.84
73628;BME280;61923;51.846;5.856;2023-02-13T02:55:43;103619.91;;;14.80;70.00
73628;BME280;61923;51.846;5.856;2023-02-13T02:58:27;103624.25;;;14.80;70.08
73628;BME280;61923;51.846;5.856;2023-02-13T03:01:15;103615.56;;;14.79;69.78
73628;BME280;61923;51.846;5.856;2023-02-13T03:04:02;103611.94;;;14.82;69.91
73628;BME280;61923;51.846;5.856;2023-02-13T03:06:56;103617.28;;;14.80;70.13
73628;BME280;61923;51.846;5.856;2023-02-13T03:09:28;103624.09;;;14.83;70.06
73628;BME280;61923;51.846;5.856;2023-02-13T03:12:18;103619.78;;;14.82;69.82
73628;BME280;61923;51.846;5.856;2023-02-13T03:15:03;103607.56;;;14.82;70.05
73628;BME280;61923;51.846;5.856;2023-02-13T03:17:28;103612.03;;;14.80;70.31
73628;BME280;61923;51.846;5.856;2023-02-13T03:23:49;103615.41;;;14.82;70.29
73628;BME280;61923;51.846;5.856;2023-02-13T03:32:27;103617.09;;;14.83;70.06
73628;BME280;61923;51.846;5.856;2023-02-13T03:38:22;103615.41;;;14.82;70.35
73628;BME280;61923;51.846;5.856;2023-02-13T03:41:26;103616.25;;;14.83;70.20
73628;BME280;61923;51.846;5.856;2023-02-13T03:44:12;103620.81;;;14.79;70.22
73628;BME280;61923;51.846;5.856;2023-02-13T03:46:43;103609.25;;;14.83;70.34
73628;BME280;61923;51.846;5.856;2023-02-13T03:49:16;103618.94;;;14.81;70.33
73628;BME280;61923;51.846;5.856;2023-02-13T03:54:46;103600.06;;;14.76;70.16
73628;BME280;61923;51.846;5.856;2023-02-13T03:57:35;103612.59;;;14.85;70.22
73628;BME280;61923;51.846;5.856;2023-02-13T04:00:24;103617.00;;;14.85;70.29
73628;BME280;61923;51.846;5.856;2023-02-13T04:03:07;103617.09;;;14.83;70.53
73628;BME280;61923;51.846;5.856;2023-02-13T04:05:40;103615.22;;;14.85;70.46
73628;BME280;61923;51.846;5.856;2023-02-13T04:08:07;103623.00;;;14.87;70.32
73628;BME280;61923;51.846;5.856;2023-02-13T04:10:34;103618.78;;;14.84;70.53
73628;BME280;61923;51.846;5.856;2023-02-13T04:15:36;103621.88;;;14.91;70.23
73628;BME280;61923;51.846;5.856;2023-02-13T04:18:17;103625.34;;;14.91;70.45
73628;BME280;61923;51.846;5.856;2023-02-13T04:20:43;103627.03;;;14.92;70.22
73628;BME280;61923;51.846;5.856;2023-02-13T04:23:09;103623.47;;;14.93;70.51
73628;BME280;61923;51.846;5.856;2023-02-13T04:25:38;103625.34;;;14.91;70.66
73628;BME280;61923;51.846;5.856;2023-02-13T04:28:04;103619.34;;;14.89;70.56
73628;BME280;61923;51.846;5.856;2023-02-13T04:30:31;103625.53;;;14.88;70.70
73628;BME280;61923;51.846;5.856;2023-02-13T04:32:56;103621.13;;;14.89;70.54
73628;BME280;61923;51.846;5.856;2023-02-13T04:35:22;103612.53;;;14.87;70.52
73628;BME280;61923;51.846;5.856;2023-02-13T04:37:47;103612.44;;;14.88;70.45
73628;BME280;61923;51.846;5.856;2023-02-13T04:40:13;103559.38;;;14.54;70.73
73628;BME280;61923;51.846;5.856;2023-02-13T04:42:38;103613.38;;;14.87;70.52
73628;BME280;61923;51.846;5.856;2023-02-13T04:45:03;103610.75;;;14.87;70.64
73628;BME280;61923;51.846;5.856;2023-02-13T04:47:29;103619.53;;;14.86;70.93
73628;BME280;61923;51.846;5.856;2023-02-13T04:49:54;103615.06;;;14.88;70.59
73628;BME280;61923;51.846;5.856;2023-02-13T04:52:20;103613.38;;;14.87;70.75
73628;BME280;61923;51.846;5.856;2023-02-13T04:54:45;103615.06;;;14.88;70.93
73628;BME280;61923;51.846;5.856;2023-02-13T04:57:10;103614.13;;;14.89;70.87
73628;BME280;61923;51.846;5.856;2023-02-13T04:59:36;103615.06;;;14.88;70.83
73628;BME280;61923;51.846;5.856;2023-02-13T05:02:01;103613.38;;;14.87;70.68
73628;BME280;61923;51.846;5.856;2023-02-13T05:04:27;103609.84;;;14.88;70.93
73628;BME280;61923;51.846;5.856;2023-02-13T05:06:53;103611.50;;;14.89;70.91
73628;BME280;61923;51.846;5.856;2023-02-13T05:09:18;103598.53;;;14.88;70.87
73628;BME280;61923;51.846;5.856;2023-02-13T05:11:44;103599.28;;;14.90;70.80
73628;BME280;61923;51.846;5.856;2023-02-13T05:14:09;103601.22;;;14.86;70.95
73628;BME280;61923;51.846;5.856;2023-02-13T05:16:35;103597.66;;;14.87;70.82
73628;BME280;61923;51.846;5.856;2023-02-13T05:19:01;103592.34;;;14.89;70.98
73628;BME280;61923;51.846;5.856;2023-02-13T05:21:26;103592.53;;;14.86;71.03
73628;BME280;61923;51.846;5.856;2023-02-13T05:24:10;103588.72;;;14.91;71.08
73628;BME280;61923;51.846;5.856;2023-02-13T05:26:36;103582.16;;;14.84;70.98
73628;BME280;61923;51.846;5.856;2023-02-13T05:29:01;103582.72;;;14.89;70.85
73628;BME280;61923;51.846;5.856;2023-02-13T05:31:52;103573.56;;;14.82;70.50
73628;BME280;61923;51.846;5.856;2023-02-13T05:34:19;103579.72;;;14.81;70.68
73628;BME280;61923;51.846;5.856;2023-02-13T05:36:44;103588.91;;;14.88;70.72
73628;BME280;61923;51.846;5.856;2023-02-13T05:39:10;103582.16;;;14.84;70.73
73628;BME280;61923;51.846;5.856;2023-02-13T05:41:35;103583.81;;;14.85;70.55
73628;BME280;61923;51.846;5.856;2023-02-13T05:44:00;103585.44;;;14.88;70.59
73628;BME280;61923;51.846;5.856;2023-02-13T05:46:26;103585.53;;;14.86;70.51
73628;BME280;61923;51.846;5.856;2023-02-13T05:48:51;103566.81;;;14.78;70.41
73628;BME280;61923;51.846;5.856;2023-02-13T05:51:18;103590.75;;;14.86;70.53
73628;BME280;61923;51.846;5.856;2023-02-13T05:53:43;103587.41;;;14.84;70.67
73628;BME280;61923;51.846;5.856;2023-02-13T05:56:09;103589.94;;;14.86;70.31
73628;BME280;61923;51.846;5.856;2023-02-13T05:58:34;103585.63;;;14.85;70.54
73628;BME280;61923;51.846;5.856;2023-02-13T06:01:00;103583.81;;;14.85;70.45
73628;BME280;61923;51.846;5.856;2023-02-13T06:03:26;103580.47;;;14.83;70.53
73628;BME280;61923;51.846;5.856;2023-02-13T06:05:53;103586.44;;;14.85;70.20
73628;BME280;61923;51.846;5.856;2023-02-13T06:08:19;103573.72;;;14.79;70.19
73628;BME280;61923;51.846;5.856;2023-02-13T06:10:47;103577.94;;;14.82;70.34
73628;BME280;61923;51.846;5.856;2023-02-13T06:13:13;103579.72;;;14.81;70.20
73628;BME280;61923;51.846;5.856;2023-02-13T06:15:39;103569.78;;;14.72;70.20
73628;BME280;61923;51.846;5.856;2023-02-13T06:18:04;103580.66;;;14.80;70.03
73628;BME280;61923;51.846;5.856;2023-02-13T06:20:30;103582.50;;;14.78;70.28
73628;BME280;61923;51.846;5.856;2023-02-13T06:22:55;103573.16;;;14.74;69.86
73628;BME280;61923;51.846;5.856;2023-02-13T06:25:21;103580.47;;;14.83;67.37
73628;BME280;61923;51.846;5.856;2023-02-13T06:27:47;103579.34;;;14.87;68.13
73628;BME280;61923;51.846;5.856;2023-02-13T06:30:13;103565.94;;;14.78;68.52
73628;BME280;61923;51.846;5.856;2023-02-13T06:32:39;103571.94;;;14.80;68.74
73628;BME280;61923;51.846;5.856;2023-02-13T06:35:05;103580.28;;;14.86;68.47
73628;BME280;61923;51.846;5.856;2023-02-13T06:37:31;103574.47;;;14.81;68.80
73628;BME280;61923;51.846;5.856;2023-02-13T06:39:56;103579.72;;;14.81;68.69
73628;BME280;61923;51.846;5.856;2023-02-13T06:42:21;103584.19;;;14.79;68.84
73628;BME280;61923;51.846;5.856;2023-02-13T06:44:47;103580.66;;;14.80;68.81
73628;BME280;61923;51.846;5.856;2023-02-13T06:47:12;103585.13;;;14.78;68.92
73628;BME280;61923;51.846;5.856;2023-02-13T06:49:37;103588.56;;;14.79;68.68
73628;BME280;61923;51.846;5.856;2023-02-13T06:52:03;103580.72;;;14.79;68.68
73628;BME280;61923;51.846;5.856;2023-02-13T06:54:28;103587.63;;;14.80;68.67
73628;BME280;61923;51.846;5.856;2023-02-13T06:56:54;103574.25;;;14.70;68.65
73628;BME280;61923;51.846;5.856;2023-02-13T06:59:19;103597.19;;;14.81;68.25
73628;BME280;61923;51.846;5.856;2023-02-13T07:01:44;103591.00;;;14.82;67.39
73628;BME280;61923;51.846;5.856;2023-02-13T07:04:10;103597.91;;;14.99;67.17
73628;BME280;61923;51.846;5.856;2023-02-13T07:06:35;103595.53;;;15.10;65.85
73628;BME280;61923;51.846;5.856;2023-02-13T07:09:02;103598.78;;;15.13;65.12
73628;BME280;61923;51.846;5.856;2023-02-13T07:11:27;103601.31;;;15.15;64.89
73628;BME280;61923;51.846;5.856;2023-02-13T07:13:53;103604.59;;;15.19;64.65
73628;BME280;61923;51.846;5.856;2023-02-13T07:16:18;103595.41;;;15.11;64.60
73628;BME280;61923;51.846;5.856;2023-02-13T07:18:44;103612.28;;;15.22;64.58
73628;BME280;61923;51.846;5.856;2023-02-13T07:21:09;103618.38;;;15.22;64.50
73628;BME280;61923;51.846;5.856;2023-02-13T07:23:34;103611.25;;;15.24;64.37
73628;BME280;61923;51.846;5.856;2023-02-13T07:26:00;103613.78;;;15.26;64.38
73628;BME280;61923;51.846;5.856;2023-02-13T07:28:29;103604.31;;;15.23;64.08
73628;BME280;61923;51.846;5.856;2023-02-13T07:30:54;103627.66;;;15.42;63.95
73628;BME280;61923;51.846;5.856;2023-02-13T07:33:20;103616.25;;;15.88;62.12
73628;BME280;61923;51.846;5.856;2023-02-13T07:35:47;103624.28;;;16.13;61.36
73628;BME280;61923;51.846;5.856;2023-02-13T07:38:12;103627.09;;;16.79;59.32
73628;BME280;61923;51.846;5.856;2023-02-13T07:40:38;103624.63;;;17.30;57.52
73628;BME280;61923;51.846;5.856;2023-02-13T07:43:03;103625.28;;;17.34;57.29
73628;BME280;61923;51.846;5.856;2023-02-13T07:45:29;103626.78;;;17.89;55.78
73628;BME280;61923;51.846;5.856;2023-02-13T07:47:55;103614.94;;;18.21;54.85
73628;BME280;61923;51.846;5.856;2023-02-13T07:50:20;103618.09;;;18.74;53.46
73628;BME280;61923;51.846;5.856;2023-02-13T07:53:04;103623.59;;;18.71;53.30
73628;BME280;61923;51.846;5.856;2023-02-13T07:55:30;103612.03;;;19.78;50.60
73628;BME280;61923;51.846;5.856;2023-02-13T07:57:55;103632.72;;;18.78;53.12
73628;BME280;61923;51.846;5.856;2023-02-13T08:00:21;103634.63;;;19.00;52.70
73628;BME280;61923;51.846;5.856;2023-02-13T08:02:47;103611.63;;;19.38;51.50
73628;BME280;61923;51.846;5.856;2023-02-13T08:05:12;103619.97;;;20.88;47.59
73628;BME280;61923;51.846;5.856;2023-02-13T08:07:38;103614.59;;;21.62;45.61
73628;BME280;61923;51.846;5.856;2023-02-13T08:10:05;103616.50;;;21.81;45.32
73628;BME280;61923;51.846;5.856;2023-02-13T08:12:50;103624.38;;;21.20;46.39
73628;BME280;61923;51.846;5.856;2023-02-13T08:15:16;103627.41;;;21.57;45.14
73628;BME280;61923;51.846;5.856;2023-02-13T08:17:41;103620.34;;;24.10;39.93
73628;BME280;61923;51.846;5.856;2023-02-13T08:20:07;103620.47;;;25.76;36.43
73628;BME280;61923;51.846;5.856;2023-02-13T08:22:33;103610.44;;;26.05;35.45
73628;BME280;61923;51.846;5.856;2023-02-13T08:24:58;103622.53;;;26.74;34.12
73628;BME280;61923;51.846;5.856;2023-02-13T08:27:24;103615.22;;;26.68;34.46
73628;BME280;61923;51.846;5.856;2023-02-13T08:29:50;103625.81;;;27.01;33.81
73628;BME280;61923;51.846;5.856;2023-02-13T08:32:16;103625.38;;;26.65;34.30
73628;BME280;61923;51.846;5.856;2023-02-13T08:34:41;103633.53;;;24.65;38.33
73628;BME280;61923;51.846;5.856;2023-02-13T08:37:07;103636.91;;;23.94;39.61
73628;BME280;61923;51.846;5.856;2023-02-13T08:39:32;103636.59;;;24.07;39.43
73628;BME280;61923;51.846;5.856;2023-02-13T08:42:01;103639.53;;;23.29;41.33
73628;BME280;61923;51.846;5.856;2023-02-13T08:44:26;103627.53;;;24.45;38.75
73628;BME280;61923;51.846;5.856;2023-02-13T08:46:52;103649.38;;;23.46;41.15
73628;BME280;61923;51.846;5.856;2023-02-13T08:49:17;103651.84;;;23.57;40.79
73628;BME280;61923;51.846;5.856;2023-02-13T08:51:45;103635.00;;;23.86;40.23
73628;BME280;61923;51.846;5.856;2023-02-13T08:54:11;103647.75;;;25.44;36.96
73628;BME280;61923;51.846;5.856;2023-02-13T08:56:37;103642.44;;;26.21;35.36
73628;BME280;61923;51.846;5.856;2023-02-13T08:59:02;103649.56;;;23.35;40.92
73628;BME280;61923;51.846;5.856;2023-02-13T09:01:27;103663.22;;;21.08;46.60
73628;BME280;61923;51.846;5.856;2023-02-13T09:03:54;103663.00;;;20.01;49.78
73628;BME280;61923;51.846;5.856;2023-02-13T09:06:25;103651.13;;;19.26;51.96
73628;BME280;61923;51.846;5.856;2023-02-13T09:08:52;103661.63;;;18.91;52.98
73628;BME280;61923;51.846;5.856;2023-02-13T09:11:20;103656.78;;;18.61;54.27
73628;BME280;61923;51.846;5.856;2023-02-13T09:13:47;103655.28;;;18.45;54.50
73628;BME280;61923;51.846;5.856;2023-02-13T09:16:13;103652.41;;;18.48;54.64
73628;BME280;61923;51.846;5.856;2023-02-13T09:18:38;103655.56;;;18.54;54.65
73628;BME280;61923;51.846;5.856;2023-02-13T09:21:06;103648.84;;;18.49;54.48
73628;BME280;61923;51.846;5.856;2023-02-13T09:23:33;103645.81;;;18.43;54.71
73628;BME280;61923;51.846;5.856;2023-02-13T09:26:00;103656.31;;;18.43;54.84
73628;BME280;61923;51.846;5.856;2023-02-13T09:28:28;103649.41;;;18.42;54.94
73628;BME280;61923;51.846;5.856;2023-02-13T09:30:54;103654.19;;;18.24;55.47
73628;BME280;61923;51.846;5.856;2023-02-13T09:33:19;103657.88;;;18.21;55.74
73628;BME280;61923;51.846;5.856;2023-02-13T09:35:44;103657.44;;;18.27;55.42
73628;BME280;61923;51.846;5.856;2023-02-13T09:38:10;103648.19;;;18.09;55.87
73628;BME280;61923;51.846;5.856;2023-02-13T09:43:30;103657.91;;;17.96;56.49
73628;BME280;61923;51.846;5.856;2023-02-13T09:46:06;103651.63;;;17.85;56.48
73628;BME280;61923;51.846;5.856;2023-02-13T09:48:35;103649.97;;;17.83;56.73
73628;BME280;61923;51.846;5.856;2023-02-13T09:51:03;103649.25;;;17.81;56.78
73628;BME280;61923;51.846;5.856;2023-02-13T09:53:29;103663.25;;;17.68;57.39
73628;BME280;61923;51.846;5.856;2023-02-13T09:56:14;103661.44;;;17.56;57.78
73628;BME280;61923;51.846;5.856;2023-02-13T09:58:41;103660.16;;;17.49;57.79
73628;BME280;61923;51.846;5.856;2023-02-13T10:01:38;103656.16;;;17.43;58.17
73628;BME280;61923;51.846;5.856;2023-02-13T10:06:44;103651.97;;;17.28;58.47
73628;BME280;61923;51.846;5.856;2023-02-13T10:09:46;103654.88;;;17.23;58.78
73628;BME280;61923;51.846;5.856;2023-02-13T10:12:47;103652.56;;;17.19;58.94
73628;BME280;61923;51.846;5.856;2023-02-13T10:15:36;103640.34;;;17.05;59.11
73628;BME280;61923;51.846;5.856;2023-02-13T10:18:14;103654.84;;;17.10;59.23
73628;BME280;61923;51.846;5.856;2023-02-13T10:20:45;103654.22;;;17.07;59.33
73628;BME280;61923;51.846;5.856;2023-02-13T10:26:00;103645.81;;;17.02;59.30
73628;BME280;61923;51.846;5.856;2023-02-13T10:28:53;103645.59;;;17.05;59.44
73628;BME280;61923;51.846;5.856;2023-02-13T10:31:39;103651.25;;;16.99;59.57
73628;BME280;61923;51.846;5.856;2023-02-13T10:34:13;103654.59;;;17.01;59.41
73628;BME280;61923;51.846;5.856;2023-02-13T10:36:42;103649.56;;;16.98;59.58
73628;BME280;61923;51.846;5.856;2023-02-13T10:39:28;103650.72;;;16.94;59.57
73628;BME280;61923;51.846;5.856;2023-02-13T10:42:05;103652.88;;;16.87;59.81
73628;BME280;61923;51.846;5.856;2023-02-13T10:58:25;103641.72;;;16.83;60.06
73628;BME280;61923;51.846;5.856;2023-02-13T11:03:30;103629.09;;;16.76;60.14
73628;BME280;61923;51.846;5.856;2023-02-13T11:05:56;103622.25;;;16.73;60.14
73628;BME280;61923;51.846;5.856;2023-02-13T11:08:31;103638.66;;;16.77;60.20
73628;BME280;61923;51.846;5.856;2023-02-13T11:10:56;103626.88;;;16.69;60.49
73628;BME280;61923;51.846;5.856;2023-02-13T11:13:23;103624.25;;;16.69;60.53
73628;BME280;61923;51.846;5.856;2023-02-13T11:16:05;103620.84;;;16.67;60.71
73628;BME280;61923;51.846;5.856;2023-02-13T11:18:37;103607.22;;;16.62;60.62
73628;BME280;61923;51.846;5.856;2023-02-13T11:21:19;103614.69;;;16.68;60.43
73628;BME280;61923;51.846;5.856;2023-02-13T11:23:52;103605.13;;;16.67;60.51
73628;BME280;61923;51.846;5.856;2023-02-13T11:26:23;103606.91;;;16.67;60.46
73628;BME280;61923;51.846;5.856;2023-02-13T11:29:05;103595.66;;;16.65;60.54
73628;BME280;61923;51.846;5.856;2023-02-13T11:31:40;103599.25;;;16.64;60.62
73628;BME280;61923;51.846;5.856;2023-02-13T11:36:50;103599.44;;;16.61;60.70
73628;BME280;61923;51.846;5.856;2023-02-13T11:39:19;103595.13;;;16.60;60.75
73628;BME280;61923;51.846;5.856;2023-02-13T11:41:45;103577.34;;;16.50;60.67
73628;BME280;61923;51.846;5.856;2023-02-13T11:44:38;103585.38;;;16.62;60.74
73628;BME280;61923;51.846;5.856;2023-02-13T11:47:05;103587.28;;;16.60;60.64
73628;BME280;61923;51.846;5.856;2023-02-13T11:49:36;103563.06;;;16.42;60.74
73628;BME280;61923;51.846;5.856;2023-02-13T11:52:05;103582.22;;;16.57;60.84
73628;BME280;61923;51.846;5.856;2023-02-13T11:54:42;103588.28;;;16.57;60.73
73628;BME280;61923;51.846;5.856;2023-02-13T11:57:31;103583.91;;;16.58;60.85
73628;BME280;61923;51.846;5.856;2023-02-13T11:59:58;103576.97;;;16.57;60.83
73628;BME280;61923;51.846;5.856;2023-02-13T12:02:44;103579.81;;;16.53;60.79
73628;BME280;61923;51.846;5.856;2023-02-13T12:07:40;103578.09;;;16.52;61.01
73628;BME280;61923;51.846;5.856;2023-02-13T12:17:58;103566.31;;;16.45;61.04
73628;BME280;61923;51.846;5.856;2023-02-13T12:20:28;103541.63;;;16.35;61.05
73628;BME280;61923;51.846;5.856;2023-02-13T12:31:32;103563.50;;;16.48;61.16
73628;BME280;61923;51.846;5.856;2023-02-13T12:39:41;103553.84;;;16.49;61.17
73628;BME280;61923;51.846;5.856;2023-02-13T12:45:44;103551.13;;;16.50;61.34
73628;BME280;61923;51.846;5.856;2023-02-13T12:50:55;103544.19;;;16.49;61.58
73628;BME280;61923;51.846;5.856;2023-02-13T12:56:05;103535.38;;;16.50;61.57
73628;BME280;61923;51.846;5.856;2023-02-13T13:15:35;103516.72;;;16.55;61.79
73628;BME280;61923;51.846;5.856;2023-02-13T13:18:07;103516.63;;;16.57;61.80
73628;BME280;61923;51.846;5.856;2023-02-13T13:20:41;103514.84;;;16.57;61.74
73628;BME280;61923;51.846;5.856;2023-02-13T13:26:03;103513.81;;;16.60;61.73
73628;BME280;61923;51.846;5.856;2023-02-13T13:28:36;103513.69;;;16.61;61.71
73628;BME280;61923;51.846;5.856;2023-02-13T13:31:03;103512.75;;;16.62;61.81
73628;BME280;61923;51.846;5.856;2023-02-13T13:33:29;103504.97;;;16.61;61.83
73628;BME280;61923;51.846;5.856;2023-02-13T13:36:05;103503.09;;;16.63;61.89
73628;BME280;61923;51.846;5.856;2023-02-13T13:38:46;103498.59;;;16.65;61.93
73628;BME280;61923;51.846;5.856;2023-02-13T13:44:20;103500.94;;;16.69;61.83
73628;BME280;61923;51.846;5.856;2023-02-13T13:46:58;103482.34;;;16.60;61.94
73628;BME280;61923;51.846;5.856;2023-02-13T13:49:33;103494.63;;;16.72;61.81
73628;BME280;61923;51.846;5.856;2023-02-13T13:52:18;103480.78;;;16.70;61.82
73628;BME280;61923;51.846;5.856;2023-02-13T13:54:44;103481.59;;;16.70;61.88
73628;BME280;61923;51.846;5.856;2023-02-13T13:57:17;103476.16;;;16.73;61.87
73628;BME280;61923;51.846;5.856;2023-02-13T14:07:33;103463.88;;;16.74;61.87
73628;BME280;61923;51.846;5.856;2023-02-13T14:09:59;103467.78;;;16.81;61.83
73628;BME280;61923;51.846;5.856;2023-02-13T14:14:51;103460.66;;;16.83;61.05
73628;BME280;61923;51.846;5.856;2023-02-13T14:20:33;103462.53;;;16.81;60.60
73628;BME280;61923;51.846;5.856;2023-02-13T14:28:53;103464.03;;;16.98;60.05
73628;BME280;61923;51.846;5.856;2023-02-13T14:36:21;103465.09;;;16.96;59.88
73628;BME280;61923;51.846;5.856;2023-02-13T14:39:03;103464.88;;;16.99;59.98
73628;BME280;61923;51.846;5.856;2023-02-13T14:41:43;103460.75;;;16.95;59.88
73628;BME280;61923;51.846;5.856;2023-02-13T14:44:19;103454.59;;;16.96;59.79
73628;BME280;61923;51.846;5.856;2023-02-13T14:46:47;103457.94;;;16.98;59.60
73628;BME280;61923;51.846;5.856;2023-02-13T14:49:18;103454.25;;;17.00;59.38
73628;BME280;61923;51.846;5.856;2023-02-13T14:51:50;103451.84;;;17.10;59.21
73628;BME280;61923;51.846;5.856;2023-02-13T14:54:32;103447.22;;;17.14;58.57
73628;BME280;61923;51.846;5.856;2023-02-13T14:57:04;103442.16;;;17.23;58.42
73628;BME280;61923;51.846;5.856;2023-02-13T14:59:35;103446.28;;;17.27;58.09
73628;BME280;61923;51.846;5.856;2023-02-13T15:02:24;103432.38;;;17.25;58.30
73628;BME280;61923;51.846;5.856;2023-02-13T15:05:14;103442.00;;;17.50;57.68
73628;BME280;61923;51.846;5.856;2023-02-13T15:12:56;103440.94;;;17.66;58.22
73628;BME280;61923;51.846;5.856;2023-02-13T15:15:27;103444.75;;;17.49;58.69
73628;BME280;61923;51.846;5.856;2023-02-13T15:17:58;103431.53;;;17.75;57.56
73628;BME280;61923;51.846;5.856;2023-02-13T15:20:32;103437.66;;;17.99;57.17
73628;BME280;61923;51.846;5.856;2023-02-13T15:22:58;103436.38;;;18.05;56.65
73628;BME280;61923;51.846;5.856;2023-02-13T15:27:55;103433.50;;;17.47;57.34
73628;BME280;61923;51.846;5.856;2023-02-13T15:30:30;103436.69;;;17.26;57.93
73628;BME280;61923;51.846;5.856;2023-02-13T15:32:58;103441.22;;;17.24;58.02
73628;BME280;61923;51.846;5.856;2023-02-13T15:35:30;103432.41;;;17.12;58.17
73628;BME280;61923;51.846;5.856;2023-02-13T15:37:56;103423.41;;;17.04;58.48
73628;BME280;61923;51.846;5.856;2023-02-13T15:40:35;103432.19;;;17.03;58.40
73628;BME280;61923;51.846;5.856;2023-02-13T15:43:36;103443.03;;;16.98;58.75